sensor_id;sensor_type;location;lat;lon;timestamp;pressure;altitude;pressure_sealevel;temperature;humidity
46768;BME280;69007;48.978;18.066;2023-12-20T00:01:36;97452.22;;;-0.32;100.00
46768;BME280;69007;48.978;18.066;2023-12-20T00:04:02;97442.34;;;-0.25;100.00
46768;BME280;69007;48.978;18.066;2023-12-20T00:06:28;97440.31;;;-0.23;100.00
46768;BME280;69007;48.978;18.066;2023-12-20T00:08:54;97431.47;;;-0.17;100.00
46768;BME280;69007;48.978;18.066;2023-12-20T00:11:19;97405.97;;;-0.26;100.00
46768;BME280;69007;48.978;18.066;2023-12-20T00:13:44;97428.00;;;-0.11;100.00
46768;BME280;69007;48.978;18.066;2023-12-20T00:16:10;97425.72;;;-0.14;100.00
46768;BME280;69007;48.978;18.066;2023-12-20T00:18:35;97425.03;;;-0.43;100.00
46768;BME280;69007;48.978;18.066;2023-12-20T00:21:00;97423.53;;;-0.59;100.00
46768;BME280;69007;48.978;18.066;2023-12-20T00:23:26;97414.84;;;-0.74;100.00
46768;BME280;69007;48.978;18.066;2023-12-20T00:25:51;97432.28;;;-0.78;100.00
46768;BME280;69007;48.978;18.066;2023-12-20T00:28:18;97408.00;;;-0.83;100.00
46768;BME280;69007;48.978;18.066;2023-12-20T00:30:43;97396.88;;;-0.94;100.00
46768;BME280;69007;48.978;18.066;2023-12-20T00:33:09;97396.47;;;-0.90;100.00
46768;BME280;69007;48.978;18.066;2023-12-20T00:35:34;97382.66;;;-0.94;100.00
46768;BME280;69007;48.978;18.066;2023-12-20T00:38:00;97417.03;;;-0.84;100.00
46768;BME280;69007;48.978;18.066;2023-12-20T00:40:25;97410.94;;;-0.71;100.00
46768;BME280;69007;48.978;18.066;2023-12-20T00:42:51;97388.91;;;-0.80;100.00
46768;BME280;69007;48.978;18.066;2023-12-20T00:45:16;97394.94;;;-0.58;100.00
46768;BME280;69007;48.978;18.066;2023-12-20T00:47:41;97381.75;;;-0.66;100.00
46768;BME280;69007;48.978;18.066;2023-12-20T00:50:08;97376.41;;;-0.66;100.00
46768;BME280;69007;48.978;18.066;2023-12-20T00:52:34;97394.72;;;-0.63;100.00
46768;BME280;69007;48.978;18.066;2023-12-20T00:55:00;97357.03;;;-0.88;100.00
46768;BME280;69007;48.978;18.066;2023-12-20T00:57:25;97389.09;;;-0.82;100.00
46768;BME280;69007;48.978;18.066;2023-12-20T00:59:51;97381.25;;;-0.90;100.00
46768;BME280;69007;48.978;18.066;2023-12-20T01:02:16;97383.22;;;-1.12;100.00
46768;BME280;69007;48.978;18.066;2023-12-20T01:04:41;97374.88;;;-1.31;100.00
46768;BME280;69007;48.978;18.066;2023-12-20T01:07:07;97347.09;;;-1.43;100.00
46768;BME280;69007;48.978;18.066;2023-12-20T01:09:34;97355.53;;;-1.39;100.00
46768;BME280;69007;48.978;18.066;2023-12-20T01:12:00;97333.94;;;-1.44;100.00
46768;BME280;69007;48.978;18.066;2023-12-20T01:14:25;97333.97;;;-1.38;100.00
46768;BME280;69007;48.978;18.066;2023-12-20T01:16:50;97342.59;;;-1.36;100.00
46768;BME280;69007;48.978;18.066;2023-12-20T01:19:16;97359.53;;;-1.22;100.00
46768;BME280;69007;48.978;18.066;2023-12-20T01:21:41;97327.28;;;-1.27;100.00
46768;BME280;69007;48.978;18.066;2023-12-20T01:24:06;97326.81;;;-1.31;100.00
46768;BME280;69007;48.978;18.066;2023-12-20T01:26:32;97341.66;;;-1.21;100.00
46768;BME280;69007;48.978;18.066;2023-12-20T01:28:57;97352.34;;;-1.21;100.00
46768;BME280;69007;48.978;18.066;2023-12-20T01:31:23;97314.72;;;-1.33;100.00
46768;BME280;69007;48.978;18.066;2023-12-20T01:33:48;97341.00;;;-1.30;100.00
46768;BME280;69007;48.978;18.066;2023-12-20T01:36:14;97331.16;;;-1.30;100.00
46768;BME280;69007;48.978;18.066;2023-12-20T01:38:39;97340.34;;;-1.32;100.00
46768;BME280;69007;48.978;18.066;2023-12-20T01:41:05;97304.16;;;-1.48;100.00
46768;BME280;69007;48.978;18.066;2023-12-20T01:43:30;97314.09;;;-1.35;100.00
46768;BME280;69007;48.978;18.066;2023-12-20T01:45:59;97314.13;;;-1.28;100.00
46768;BME280;69007;48.978;18.066;2023-12-20T01:48:25;97320.53;;;-1.16;100.00
46768;BME280;69007;48.978;18.066;2023-12-20T01:50:53;97326.03;;;-1.24;100.00
46768;BME280;69007;48.978;18.066;2023-12-20T01:53:20;97304.69;;;-1.24;100.00
46768;BME280;69007;48.978;18.066;2023-12-20T01:55:47;97269.31;;;-1.33;100.00
46768;BME280;69007;48.978;18.066;2023-12-20T01:58:15;97288.66;;;-1.24;100.00
46768;BME280;69007;48.978;18.066;2023-12-20T02:00:41;97288.88;;;-1.19;100.00
46768;BME280;69007;48.978;18.066;2023-12-20T02:03:06;97298.97;;;-1.15;100.00
46768;BME280;69007;48.978;18.066;2023-12-20T02:05:33;97293.03;;;-1.10;100.00
46768;BME280;69007;48.978;18.066;2023-12-20T02:08:00;97306.41;;;-1.10;100.00
46768;BME280;69007;48.978;18.066;2023-12-20T02:10:25;97273.44;;;-1.24;100.00
46768;BME280;69007;48.978;18.066;2023-12-20T02:12:51;97281.31;;;-1.57;100.00
46768;BME280;69007;48.978;18.066;2023-12-20T02:15:16;97245.31;;;-1.75;100.00
46768;BME280;69007;48.978;18.066;2023-12-20T02:17:42;97257.22;;;-1.71;100.00
46768;BME280;69007;48.978;18.066;2023-12-20T02:20:09;97273.47;;;-1.65;100.00
46768;BME280;69007;48.978;18.066;2023-12-20T02:22:34;97258.50;;;-1.67;100.00
46768;BME280;69007;48.978;18.066;2023-12-20T02:24:59;97260.13;;;-1.65;100.00
46768;BME280;69007;48.978;18.066;2023-12-20T02:27:25;97251.13;;;-1.58;100.00
46768;BME280;69007;48.978;18.066;2023-12-20T02:29:50;97254.25;;;-1.48;100.00
46768;BME280;69007;48.978;18.066;2023-12-20T02:32:20;97261.06;;;-1.45;100.00
46768;BME280;69007;48.978;18.066;2023-12-20T02:34:47;97232.69;;;-1.53;100.00
46768;BME280;69007;48.978;18.066;2023-12-20T02:37:13;97240.50;;;-1.51;100.00
46768;BME280;69007;48.978;18.066;2023-12-20T02:39:38;97241.34;;;-1.44;100.00
46768;BME280;69007;48.978;18.066;2023-12-20T02:42:04;97235.19;;;-1.44;100.00
46768;BME280;69007;48.978;18.066;2023-12-20T02:44:29;97240.97;;;-1.34;100.00
46768;BME280;69007;48.978;18.066;2023-12-20T02:46:54;97233.56;;;-1.39;100.00
46768;BME280;69007;48.978;18.066;2023-12-20T02:49:20;97248.00;;;-1.26;100.00
46768;BME280;69007;48.978;18.066;2023-12-20T02:51:45;97241.84;;;-1.27;100.00
46768;BME280;69007;48.978;18.066;2023-12-20T02:54:11;97240.38;;;-1.30;100.00
46768;BME280;69007;48.978;18.066;2023-12-20T02:56:36;97256.78;;;-1.39;100.00
46768;BME280;69007;48.978;18.066;2023-12-20T02:59:02;97235.13;;;-1.58;100.00
46768;BME280;69007;48.978;18.066;2023-12-20T03:01:28;97259.31;;;-1.66;100.00
46768;BME280;69007;48.978;18.066;2023-12-20T03:03:54;97245.94;;;-1.73;100.00
46768;BME280;69007;48.978;18.066;2023-12-20T03:06:19;97243.69;;;-1.69;100.00
46768;BME280;69007;48.978;18.066;2023-12-20T03:08:45;97220.50;;;-1.69;100.00
46768;BME280;69007;48.978;18.066;2023-12-20T03:11:11;97235.94;;;-1.57;100.00
46768;BME280;69007;48.978;18.066;2023-12-20T03:13:36;97237.81;;;-1.58;100.00
46768;BME280;69007;48.978;18.066;2023-12-20T03:16:08;97214.19;;;-1.61;100.00
46768;BME280;69007;48.978;18.066;2023-12-20T03:18:34;97230.28;;;-1.41;100.00
46768;BME280;69007;48.978;18.066;2023-12-20T03:20:59;97238.09;;;-1.33;100.00
46768;BME280;69007;48.978;18.066;2023-12-20T03:23:24;97239.78;;;-1.25;100.00
46768;BME280;69007;48.978;18.066;2023-12-20T03:25:51;97214.88;;;-1.39;100.00
46768;BME280;69007;48.978;18.066;2023-12-20T03:28:16;97228.06;;;-1.24;100.00
46768;BME280;69007;48.978;18.066;2023-12-20T03:30:42;97228.31;;;-1.19;100.00
46768;BME280;69007;48.978;18.066;2023-12-20T03:33:07;97236.09;;;-1.17;100.00
46768;BME280;69007;48.978;18.066;2023-12-20T03:35:33;97217.47;;;-1.10;100.00
46768;BME280;69007;48.978;18.066;2023-12-20T03:37:58;97196.06;;;-1.17;100.00
46768;BME280;69007;48.978;18.066;2023-12-20T03:40:25;97208.84;;;-0.99;100.00
46768;BME280;69007;48.978;18.066;2023-12-20T03:42:50;97185.19;;;-1.16;100.00
46768;BME280;69007;48.978;18.066;2023-12-20T03:45:16;97204.13;;;-0.97;100.00
46768;BME280;69007;48.978;18.066;2023-12-20T03:47:41;97236.19;;;-0.90;100.00
46768;BME280;69007;48.978;18.066;2023-12-20T03:50:07;97216.66;;;-0.98;100.00
46768;BME280;69007;48.978;18.066;2023-12-20T03:52:32;97206.78;;;-1.04;100.00
46768;BME280;69007;48.978;18.066;2023-12-20T03:54:58;97227.16;;;-0.83;100.00
46768;BME280;69007;48.978;18.066;2023-12-20T03:57:23;97224.28;;;-0.81;100.00
46768;BME280;69007;48.978;18.066;2023-12-20T03:59:48;97206.63;;;-0.76;100.00
46768;BME280;69007;48.978;18.066;2023-12-20T04:02:14;97202.50;;;-0.85;100.00
46768;BME280;69007;48.978;18.066;2023-12-20T04:04:39;97181.31;;;-0.93;100.00
46768;BME280;69007;48.978;18.066;2023-12-20T04:07:05;97221.00;;;-0.90;100.00
46768;BME280;69007;48.978;18.066;2023-12-20T04:09:30;97215.22;;;-0.94;100.00
46768;BME280;69007;48.978;18.066;2023-12-20T04:11:55;97202.69;;;-1.00;100.00
46768;BME280;69007;48.978;18.066;2023-12-20T04:14:21;97217.31;;;-0.82;100.00
46768;BME280;69007;48.978;18.066;2023-12-20T04:16:46;97186.25;;;-0.90;100.00
46768;BME280;69007;48.978;18.066;2023-12-20T04:19:11;97187.94;;;-0.76;100.00
46768;BME280;69007;48.978;18.066;2023-12-20T04:21:37;97190.63;;;-0.69;100.00
46768;BME280;69007;48.978;18.066;2023-12-20T04:24:02;97187.75;;;-0.67;100.00
46768;BME280;69007;48.978;18.066;2023-12-20T04:26:28;97199.03;;;-0.59;100.00
46768;BME280;69007;48.978;18.066;2023-12-20T04:28:54;97198.63;;;-0.56;100.00
46768;BME280;69007;48.978;18.066;2023-12-20T04:31:20;97155.66;;;-0.67;100.00
46768;BME280;69007;48.978;18.066;2023-12-20T04:33:45;97189.81;;;-0.49;100.00
46768;BME280;69007;48.978;18.066;2023-12-20T04:36:10;97151.53;;;-0.63;100.00
46768;BME280;69007;48.978;18.066;2023-12-20T04:38:36;97172.50;;;-0.47;100.00
46768;BME280;69007;48.978;18.066;2023-12-20T04:41:01;97168.00;;;-0.40;100.00
46768;BME280;69007;48.978;18.066;2023-12-20T04:43:27;97141.69;;;-0.56;100.00
46768;BME280;69007;48.978;18.066;2023-12-20T04:45:53;97166.97;;;-0.45;100.00
46768;BME280;69007;48.978;18.066;2023-12-20T04:48:18;97130.97;;;-0.63;100.00
46768;BME280;69007;48.978;18.066;2023-12-20T04:50:44;97178.69;;;-0.33;100.00
46768;BME280;69007;48.978;18.066;2023-12-20T04:53:09;97166.56;;;-0.42;100.00
46768;BME280;69007;48.978;18.066;2023-12-20T04:55:35;97176.84;;;-0.39;100.00
46768;BME280;69007;48.978;18.066;2023-12-20T04:58:00;97151.75;;;-0.51;100.00
46768;BME280;69007;48.978;18.066;2023-12-20T05:00:26;97178.69;;;-0.40;100.00
46768;BME280;69007;48.978;18.066;2023-12-20T05:02:51;97179.31;;;-0.38;100.00
46768;BME280;69007;48.978;18.066;2023-12-20T05:05:17;97159.75;;;-0.38;100.00
46768;BME280;69007;48.978;18.066;2023-12-20T05:07:43;97156.84;;;-0.30;100.00
46768;BME280;69007;48.978;18.066;2023-12-20T05:10:09;97178.25;;;-0.30;100.00
46768;BME280;69007;48.978;18.066;2023-12-20T05:12:34;97157.09;;;-0.45;100.00
46768;BME280;69007;48.978;18.066;2023-12-20T05:15:00;97180.72;;;-0.28;100.00
46768;BME280;69007;48.978;18.066;2023-12-20T05:17:25;97183.00;;;-0.32;100.00
46768;BME280;69007;48.978;18.066;2023-12-20T05:19:51;97173.94;;;-0.24;100.00
46768;BME280;69007;48.978;18.066;2023-12-20T05:22:16;97177.63;;;-0.25;100.00
46768;BME280;69007;48.978;18.066;2023-12-20T05:24:42;97184.25;;;-0.28;100.00
46768;BME280;69007;48.978;18.066;2023-12-20T05:27:07;97180.94;;;-0.37;100.00
46768;BME280;69007;48.978;18.066;2023-12-20T05:29:33;97153.19;;;-0.56;100.00
46768;BME280;69007;48.978;18.066;2023-12-20T05:31:58;97169.03;;;-0.54;100.00
46768;BME280;69007;48.978;18.066;2023-12-20T05:34:24;97186.72;;;-0.33;100.00
46768;BME280;69007;48.978;18.066;2023-12-20T05:36:49;97180.94;;;-0.37;100.00
46768;BME280;69007;48.978;18.066;2023-12-20T05:39:15;97166.53;;;-0.35;100.00
46768;BME280;69007;48.978;18.066;2023-12-20T05:41:40;97160.59;;;-0.31;100.00
46768;BME280;69007;48.978;18.066;2023-12-20T05:44:06;97173.53;;;-0.28;100.00
46768;BME280;69007;48.978;18.066;2023-12-20T05:46:31;97140.81;;;-0.37;100.00
46768;BME280;69007;48.978;18.066;2023-12-20T05:48:56;97145.34;;;-0.30;100.00
46768;BME280;69007;48.978;18.066;2023-12-20T05:51:22;97140.22;;;-0.32;100.00
46768;BME280;69007;48.978;18.066;2023-12-20T05:53:47;97160.78;;;-0.26;100.00
46768;BME280;69007;48.978;18.066;2023-12-20T05:56:16;97161.38;;;-0.24;100.00
46768;BME280;69007;48.978;18.066;2023-12-20T05:58:41;97144.53;;;-0.24;100.00
46768;BME280;69007;48.978;18.066;2023-12-20T06:01:06;97133.00;;;-0.38;100.00
46768;BME280;69007;48.978;18.066;2023-12-20T06:03:33;97121.91;;;-0.35;100.00
46768;BME280;69007;48.978;18.066;2023-12-20T06:05:59;97155.03;;;-0.23;100.00
46768;BME280;69007;48.978;18.066;2023-12-20T06:08:25;97128.88;;;-0.21;100.00
46768;BME280;69007;48.978;18.066;2023-12-20T06:10:51;97111.41;;;-0.30;100.00
46768;BME280;69007;48.978;18.066;2023-12-20T06:13:16;97134.41;;;-0.15;100.00
46768;BME280;69007;48.978;18.066;2023-12-20T06:15:42;97138.97;;;-0.23;100.00
46768;BME280;69007;48.978;18.066;2023-12-20T06:18:07;97125.41;;;-0.21;100.00
46768;BME280;69007;48.978;18.066;2023-12-20T06:20:33;97140.38;;;-0.13;100.00
46768;BME280;69007;48.978;18.066;2023-12-20T06:22:58;97110.78;;;-0.19;100.00
46768;BME280;69007;48.978;18.066;2023-12-20T06:25:24;97125.56;;;-0.03;100.00
46768;BME280;69007;48.978;18.066;2023-12-20T06:27:49;97135.41;;;0.10;100.00
46768;BME280;69007;48.978;18.066;2023-12-20T06:30:15;97126.31;;;0.11;100.00
46768;BME280;69007;48.978;18.066;2023-12-20T06:32:41;97121.81;;;0.12;100.00
46768;BME280;69007;48.978;18.066;2023-12-20T06:35:08;97117.25;;;0.19;100.00
46768;BME280;69007;48.978;18.066;2023-12-20T06:37:34;97126.06;;;0.26;100.00
46768;BME280;69007;48.978;18.066;2023-12-20T06:39:59;97148.63;;;0.50;100.00
46768;BME280;69007;48.978;18.066;2023-12-20T06:42:24;97129.84;;;0.57;100.00
46768;BME280;69007;48.978;18.066;2023-12-20T06:44:50;97141.75;;;0.68;100.00
46768;BME280;69007;48.978;18.066;2023-12-20T06:47:15;97151.13;;;0.84;100.00
46768;BME280;69007;48.978;18.066;2023-12-20T06:49:40;97156.22;;;0.92;100.00
46768;BME280;69007;48.978;18.066;2023-12-20T06:52:06;97139.16;;;0.86;100.00
46768;BME280;69007;48.978;18.066;2023-12-20T06:54:32;97159.88;;;1.04;100.00
46768;BME280;69007;48.978;18.066;2023-12-20T06:56:59;97161.75;;;1.54;100.00
46768;BME280;69007;48.978;18.066;2023-12-20T06:59:24;97137.41;;;2.36;100.00
46768;BME280;69007;48.978;18.066;2023-12-20T07:01:51;97158.31;;;3.13;100.00
46768;BME280;69007;48.978;18.066;2023-12-20T07:04:16;97163.03;;;3.00;100.00
46768;BME280;69007;48.978;18.066;2023-12-20T07:06:45;97168.34;;;2.57;100.00
46768;BME280;69007;48.978;18.066;2023-12-20T07:09:10;97157.53;;;2.09;100.00
46768;BME280;69007;48.978;18.066;2023-12-20T07:11:38;97133.28;;;1.53;100.00
46768;BME280;69007;48.978;18.066;2023-12-20T07:14:03;97145.38;;;1.12;100.00
46768;BME280;69007;48.978;18.066;2023-12-20T07:16:29;97147.97;;;0.94;100.00
46768;BME280;69007;48.978;18.066;2023-12-20T07:18:54;97164.00;;;1.00;100.00
46768;BME280;69007;48.978;18.066;2023-12-20T07:21:21;97173.31;;;0.98;100.00
46768;BME280;69007;48.978;18.066;2023-12-20T07:23:46;97132.75;;;0.87;100.00
46768;BME280;69007;48.978;18.066;2023-12-20T07:26:12;97164.34;;;1.10;100.00
46768;BME280;69007;48.978;18.066;2023-12-20T07:28:40;97168.13;;;1.03;100.00
46768;BME280;69007;48.978;18.066;2023-12-20T07:31:06;97160.91;;;1.03;100.00
46768;BME280;69007;48.978;18.066;2023-12-20T07:33:31;97161.50;;;1.05;100.00
46768;BME280;69007;48.978;18.066;2023-12-20T07:35:56;97168.94;;;1.03;100.00
46768;BME280;69007;48.978;18.066;2023-12-20T07:38:22;97181.69;;;1.08;100.00
46768;BME280;69007;48.978;18.066;2023-12-20T07:40:47;97158.81;;;1.05;100.00
46768;BME280;69007;48.978;18.066;2023-12-20T07:43:12;97169.06;;;1.15;100.00
46768;BME280;69007;48.978;18.066;2023-12-20T07:45:37;97171.94;;;1.14;100.00
46768;BME280;69007;48.978;18.066;2023-12-20T07:48:03;97172.41;;;1.04;100.00
46768;BME280;69007;48.978;18.066;2023-12-20T07:50:30;97152.38;;;0.81;100.00
46768;BME280;69007;48.978;18.066;2023-12-20T07:52:55;97179.69;;;0.97;100.00
46768;BME280;69007;48.978;18.066;2023-12-20T07:55:20;97168.00;;;0.91;100.00
46768;BME280;69007;48.978;18.066;2023-12-20T07:57:46;97174.41;;;0.83;100.00
46768;BME280;69007;48.978;18.066;2023-12-20T08:00:11;97183.00;;;0.92;100.00
46768;BME280;69007;48.978;18.066;2023-12-20T08:02:37;97198.09;;;0.86;100.00
46768;BME280;69007;48.978;18.066;2023-12-20T08:05:03;97203.06;;;0.83;100.00
46768;BME280;69007;48.978;18.066;2023-12-20T08:07:28;97172.38;;;0.79;100.00
46768;BME280;69007;48.978;18.066;2023-12-20T08:09:54;97186.28;;;1.01;100.00
46768;BME280;69007;48.978;18.066;2023-12-20T08:12:21;97175.81;;;0.93;100.00
46768;BME280;69007;48.978;18.066;2023-12-20T08:14:46;97179.16;;;0.81;100.00
46768;BME280;69007;48.978;18.066;2023-12-20T08:17:12;97181.47;;;0.71;100.00
46768;BME280;69007;48.978;18.066;2023-12-20T08:19:37;97184.34;;;0.76;100.00
46768;BME280;69007;48.978;18.066;2023-12-20T08:22:03;97190.94;;;0.73;100.00
46768;BME280;69007;48.978;18.066;2023-12-20T08:24:29;97221.78;;;0.89;100.00
46768;BME280;69007;48.978;18.066;2023-12-20T08:26:55;97204.44;;;0.92;100.00
46768;BME280;69007;48.978;18.066;2023-12-20T08:29:20;97220.72;;;0.90;100.00
46768;BME280;69007;48.978;18.066;2023-12-20T08:31:46;97210.63;;;0.93;100.00
46768;BME280;69007;48.978;18.066;2023-12-20T08:34:11;97221.16;;;0.94;100.00
46768;BME280;69007;48.978;18.066;2023-12-20T08:36:39;97216.22;;;0.91;100.00
46768;BME280;69007;48.978;18.066;2023-12-20T08:39:04;97205.28;;;0.93;100.00
46768;BME280;69007;48.978;18.066;2023-12-20T08:41:32;97214.09;;;1.00;100.00
46768;BME280;69007;48.978;18.066;2023-12-20T08:43:57;97227.06;;;1.03;100.00
46768;BME280;69007;48.978;18.066;2023-12-20T08:46:23;97202.94;;;1.03;100.00
46768;BME280;69007;48.978;18.066;2023-12-20T08:48:48;97213.66;;;1.03;100.00
46768;BME280;69007;48.978;18.066;2023-12-20T08:51:14;97236.94;;;1.09;100.00
46768;BME280;69007;48.978;18.066;2023-12-20T08:53:39;97221.28;;;1.06;100.00
46768;BME280;69007;48.978;18.066;2023-12-20T08:56:05;97200.44;;;1.08;100.00
46768;BME280;69007;48.978;18.066;2023-12-20T08:58:30;97194.50;;;1.06;100.00
46768;BME280;69007;48.978;18.066;2023-12-20T09:00:56;97175.34;;;0.96;100.00
46768;BME280;69007;48.978;18.066;2023-12-20T09:03:22;97185.59;;;1.05;100.00
46768;BME280;69007;48.978;18.066;2023-12-20T09:05:47;97182.94;;;1.05;100.00
46768;BME280;69007;48.978;18.066;2023-12-20T09:08:13;97207.88;;;1.06;100.00
46768;BME280;69007;48.978;18.066;2023-12-20T09:10:38;97216.53;;;1.08;100.00
46768;BME280;69007;48.978;18.066;2023-12-20T09:13:03;97181.50;;;1.03;100.00
46768;BME280;69007;48.978;18.066;2023-12-20T09:15:29;97187.25;;;1.06;100.00
46768;BME280;69007;48.978;18.066;2023-12-20T09:17:55;97202.19;;;1.27;100.00
46768;BME280;69007;48.978;18.066;2023-12-20T09:20:21;97199.72;;;1.26;100.00
46768;BME280;69007;48.978;18.066;2023-12-20T09:22:48;97211.03;;;1.28;100.00
46768;BME280;69007;48.978;18.066;2023-12-20T09:25:14;97200.75;;;1.25;100.00
46768;BME280;69007;48.978;18.066;2023-12-20T09:27:41;97178.63;;;1.04;100.00
46768;BME280;69007;48.978;18.066;2023-12-20T09:30:07;97201.44;;;1.14;100.00
46768;BME280;69007;48.978;18.066;2023-12-20T09:32:32;97167.09;;;0.97;100.00
46768;BME280;69007;48.978;18.066;2023-12-20T09:34:57;97167.16;;;0.90;100.00
46768;BME280;69007;48.978;18.066;2023-12-20T09:37:26;97153.31;;;0.94;100.00
46768;BME280;69007;48.978;18.066;2023-12-20T09:39:51;97172.38;;;1.10;100.00
46768;BME280;69007;48.978;18.066;2023-12-20T09:45:08;97143.78;;;1.04;100.00
46768;BME280;69007;48.978;18.066;2023-12-20T09:47:35;97132.00;;;1.05;100.00
46768;BME280;69007;48.978;18.066;2023-12-20T09:50:01;97169.84;;;1.22;100.00
46768;BME280;69007;48.978;18.066;2023-12-20T09:52:27;97138.59;;;1.09;100.00
46768;BME280;69007;48.978;18.066;2023-12-20T09:54:53;97153.81;;;1.16;100.00
46768;BME280;69007;48.978;18.066;2023-12-20T09:57:20;97153.81;;;1.16;100.00
46768;BME280;69007;48.978;18.066;2023-12-20T09:59:45;97145.09;;;1.20;100.00
46768;BME280;69007;48.978;18.066;2023-12-20T10:02:13;97156.66;;;1.21;100.00
46768;BME280;69007;48.978;18.066;2023-12-20T10:04:47;97127.84;;;1.16;100.00
46768;BME280;69007;48.978;18.066;2023-12-20T10:07:15;97149.16;;;1.29;100.00
46768;BME280;69007;48.978;18.066;2023-12-20T10:09:41;97152.06;;;1.28;100.00
46768;BME280;69007;48.978;18.066;2023-12-20T10:12:07;97148.56;;;1.27;100.00
46768;BME280;69007;48.978;18.066;2023-12-20T10:14:32;97156.84;;;1.26;100.00
46768;BME280;69007;48.978;18.066;2023-12-20T10:17:04;97113.41;;;1.17;100.00
46768;BME280;69007;48.978;18.066;2023-12-20T10:19:30;97146.16;;;1.44;100.00
46768;BME280;69007;48.978;18.066;2023-12-20T10:21:57;97147.59;;;1.47;100.00
46768;BME280;69007;48.978;18.066;2023-12-20T10:24:23;97112.41;;;1.37;100.00
46768;BME280;69007;48.978;18.066;2023-12-20T10:27:01;97141.75;;;1.57;100.00
46768;BME280;69007;48.978;18.066;2023-12-20T10:29:26;97106.16;;;1.43;100.00
46768;BME280;69007;48.978;18.066;2023-12-20T10:31:51;97131.97;;;1.62;100.00
46768;BME280;69007;48.978;18.066;2023-12-20T10:34:22;97135.25;;;1.64;100.00
46768;BME280;69007;48.978;18.066;2023-12-20T10:36:48;97118.13;;;1.65;100.00
46768;BME280;69007;48.978;18.066;2023-12-20T10:39:14;97119.03;;;1.78;100.00
46768;BME280;69007;48.978;18.066;2023-12-20T10:41:41;97140.06;;;1.81;100.00
46768;BME280;69007;48.978;18.066;2023-12-20T10:44:08;97130.75;;;1.83;100.00
46768;BME280;69007;48.978;18.066;2023-12-20T10:46:35;97103.44;;;1.68;100.00
46768;BME280;69007;48.978;18.066;2023-12-20T10:49:03;97110.84;;;1.73;100.00
46768;BME280;69007;48.978;18.066;2023-12-20T10:51:31;97124.63;;;1.76;100.00
46768;BME280;69007;48.978;18.066;2023-12-20T10:53:56;97115.03;;;1.69;100.00
46768;BME280;69007;48.978;18.066;2023-12-20T10:56:22;97097.56;;;1.59;100.00
46768;BME280;69007;48.978;18.066;2023-12-20T10:58:50;97116.97;;;1.80;100.00
46768;BME280;69007;48.978;18.066;2023-12-20T11:01:17;97095.16;;;1.95;100.00
46768;BME280;69007;48.978;18.066;2023-12-20T11:03:53;97107.44;;;2.39;100.00
46768;BME280;69007;48.978;18.066;2023-12-20T11:06:43;97106.09;;;2.61;100.00
46768;BME280;69007;48.978;18.066;2023-12-20T11:12:22;97108.00;;;3.02;100.00
46768;BME280;69007;48.978;18.066;2023-12-20T11:14:52;97097.63;;;3.06;100.00
46768;BME280;69007;48.978;18.066;2023-12-20T11:17:19;97103.47;;;3.26;100.00
46768;BME280;69007;48.978;18.066;2023-12-20T11:20:08;97105.03;;;3.34;100.00
46768;BME280;69007;48.978;18.066;2023-12-20T11:22:36;97076.13;;;3.18;100.00
46768;BME280;69007;48.978;18.066;2023-12-20T11:27:30;97080.91;;;3.16;100.00
46768;BME280;69007;48.978;18.066;2023-12-20T11:29:57;97108.53;;;3.35;100.00
46768;BME280;69007;48.978;18.066;2023-12-20T11:37:36;97106.78;;;3.40;100.00
46768;BME280;69007;48.978;18.066;2023-12-20T11:42:33;97093.94;;;3.42;100.00
46768;BME280;69007;48.978;18.066;2023-12-20T11:44:59;97076.38;;;3.40;100.00
46768;BME280;69007;48.978;18.066;2023-12-20T11:47:29;97086.56;;;3.49;100.00
46768;BME280;69007;48.978;18.066;2023-12-20T11:49:55;97088.78;;;3.53;100.00
46768;BME280;69007;48.978;18.066;2023-12-20T11:52:21;97091.00;;;3.56;100.00
46768;BME280;69007;48.978;18.066;2023-12-20T11:54:46;97067.84;;;3.55;100.00
46768;BME280;69007;48.978;18.066;2023-12-20T11:57:13;97033.09;;;3.41;100.00
46768;BME280;69007;48.978;18.066;2023-12-20T11:59:38;97071.00;;;3.63;100.00
46768;BME280;69007;48.978;18.066;2023-12-20T12:02:04;97057.78;;;3.62;100.00
46768;BME280;69007;48.978;18.066;2023-12-20T12:04:29;97063.84;;;3.69;100.00
46768;BME280;69007;48.978;18.066;2023-12-20T12:06:54;97049.84;;;3.55;100.00
46768;BME280;69007;48.978;18.066;2023-12-20T12:09:20;97057.78;;;3.62;100.00
46768;BME280;69007;48.978;18.066;2023-12-20T12:11:45;97040.81;;;3.49;100.00
46768;BME280;69007;48.978;18.066;2023-12-20T12:14:11;97069.03;;;3.59;100.00
46768;BME280;69007;48.978;18.066;2023-12-20T12:16:36;97066.44;;;3.64;100.00
46768;BME280;69007;48.978;18.066;2023-12-20T12:19:02;97063.50;;;3.65;100.00
46768;BME280;69007;48.978;18.066;2023-12-20T12:21:27;97031.94;;;3.61;100.00
46768;BME280;69007;48.978;18.066;2023-12-20T12:23:53;97057.06;;;3.78;100.00
46768;BME280;69007;48.978;18.066;2023-12-20T12:26:18;97061.03;;;3.87;100.00
46768;BME280;69007;48.978;18.066;2023-12-20T12:28:43;97055.78;;;3.93;100.00
46768;BME280;69007;48.978;18.066;2023-12-20T12:31:13;97049.22;;;3.88;100.00
46768;BME280;69007;48.978;18.066;2023-12-20T12:33:41;97051.69;;;3.90;100.00
46768;BME280;69007;48.978;18.066;2023-12-20T12:36:07;97052.94;;;3.87;100.00
46768;BME280;69007;48.978;18.066;2023-12-20T12:38:33;97054.50;;;3.83;100.00
46768;BME280;69007;48.978;18.066;2023-12-20T12:41:00;97067.38;;;3.81;100.00
46768;BME280;69007;48.978;18.066;2023-12-20T12:43:25;97049.91;;;3.84;100.00
46768;BME280;69007;48.978;18.066;2023-12-20T12:45:51;97032.28;;;3.76;100.00
46768;BME280;69007;48.978;18.066;2023-12-20T12:48:16;97056.72;;;3.86;100.00
46768;BME280;69007;48.978;18.066;2023-12-20T12:50:42;97058.34;;;3.87;100.00
46768;BME280;69007;48.978;18.066;2023-12-20T12:53:08;97042.66;;;3.96;100.00
46768;BME280;69007;48.978;18.066;2023-12-20T12:55:34;97016.69;;;3.90;100.00